createdAt,value
2019-04-27T00:00:00.002Z,1007.20
2019-04-27T00:00:57.809Z,1007.20
2019-04-27T00:01:57.794Z,1007.19
2019-04-27T00:03:02.058Z,1007.19
2019-04-27T00:03:57.798Z,1007.14
2019-04-27T00:04:57.735Z,1007.15
2019-04-27T00:05:57.719Z,1007.18
2019-04-27T00:06:57.698Z,1007.14
2019-04-27T00:07:59.328Z,1007.16
2019-04-27T00:08:57.661Z,1007.13
2019-04-27T00:09:57.642Z,1007.16
2019-04-27T00:10:59.916Z,1007.12
2019-04-27T00:11:57.606Z,1007.10
2019-04-27T00:13:02.248Z,1007.09
2019-04-27T00:13:57.569Z,1007.06
2019-04-27T00:14:57.549Z,1007.01
2019-04-27T00:15:57.542Z,1007.03
2019-04-27T00:16:57.514Z,1007.04
2019-04-27T00:17:58.568Z,1007.04
2019-04-27T00:18:58.079Z,1006.99
2019-04-27T00:19:57.462Z,1006.99
2019-04-27T00:20:57.454Z,1006.92
2019-04-27T00:21:57.422Z,1006.90
2019-04-27T00:22:57.402Z,1006.90
2019-04-27T00:23:57.390Z,1006.87
2019-04-27T00:24:57.367Z,1006.90
2019-04-27T00:25:57.349Z,1006.91
2019-04-27T00:26:57.327Z,1006.84
2019-04-27T00:27:57.309Z,1006.82
2019-04-27T00:28:57.293Z,1006.79
2019-04-27T00:29:57.274Z,1006.80
2019-04-27T00:30:57.265Z,1006.79
2019-04-27T00:31:57.236Z,1006.79
2019-04-27T00:32:57.220Z,1006.81
2019-04-27T00:33:57.199Z,1006.83
2019-04-27T00:34:57.182Z,1006.80
2019-04-27T00:35:57.163Z,1006.80
2019-04-27T00:36:57.144Z,1006.82
2019-04-27T00:37:57.127Z,1006.77
2019-04-27T00:38:57.111Z,1006.74
2019-04-27T00:39:57.089Z,1006.77
2019-04-27T00:40:57.070Z,1006.73
2019-04-27T00:41:57.053Z,1006.79
2019-04-27T00:42:57.035Z,1006.78
2019-04-27T00:43:57.016Z,1006.78
2019-04-27T00:44:56.997Z,1006.72
2019-04-27T00:45:56.983Z,1006.72
2019-04-27T00:46:56.962Z,1006.73
2019-04-27T00:47:59.649Z,1006.69
2019-04-27T00:48:56.928Z,1006.72
2019-04-27T00:49:56.904Z,1006.73
2019-04-27T00:50:56.885Z,1006.79
2019-04-27T00:51:56.880Z,1006.79
2019-04-27T00:52:56.850Z,1006.77
2019-04-27T00:53:56.830Z,1006.78
2019-04-27T00:54:56.811Z,1006.77
2019-04-27T00:55:56.793Z,1006.76
2019-04-27T00:56:56.777Z,1006.73
2019-04-27T00:57:58.931Z,1006.74
2019-04-27T00:58:56.739Z,1006.71
2019-04-27T00:59:56.719Z,1006.71
2019-04-27T01:00:56.721Z,1006.70
2019-04-27T01:01:56.684Z,1006.71
2019-04-27T01:02:56.664Z,1006.69
2019-04-27T01:03:56.644Z,1006.67
2019-04-27T01:04:56.628Z,1006.64
2019-04-27T01:05:56.607Z,1006.63
2019-04-27T01:06:56.588Z,1006.65
2019-04-27T01:07:56.569Z,1006.63
2019-04-27T01:08:56.566Z,1006.58
2019-04-27T01:09:56.538Z,1006.62
2019-04-27T01:10:56.513Z,1006.60
2019-04-27T01:11:56.495Z,1006.58
2019-04-27T01:12:56.485Z,1006.60
2019-04-27T01:13:56.459Z,1006.53
2019-04-27T01:14:56.441Z,1006.59
2019-04-27T01:15:56.419Z,1006.53
2019-04-27T01:16:56.416Z,1006.55
2019-04-27T01:18:11.022Z,1006.53
2019-04-27T01:18:56.363Z,1006.51
2019-04-27T01:19:56.346Z,1006.49
2019-04-27T01:20:56.335Z,1006.44
2019-04-27T01:21:56.309Z,1006.43
2019-04-27T01:22:56.290Z,1006.41
2019-04-27T01:23:56.271Z,1006.41
2019-04-27T01:24:56.258Z,1006.42
2019-04-27T01:25:56.235Z,1006.39
2019-04-27T01:26:56.214Z,1006.35
2019-04-27T01:27:56.199Z,1006.39
2019-04-27T01:28:56.178Z,1006.34
2019-04-27T01:29:56.159Z,1006.36
2019-04-27T01:30:56.140Z,1006.34
2019-04-27T01:31:56.133Z,1006.32
2019-04-27T01:32:56.105Z,1006.32
2019-04-27T01:33:56.083Z,1006.31
2019-04-27T01:34:56.065Z,1006.26
2019-04-27T01:35:56.047Z,1006.28
2019-04-27T01:36:56.032Z,1006.29
2019-04-27T01:37:56.011Z,1006.27
2019-04-27T01:38:55.988Z,1006.26
2019-04-27T01:39:55.970Z,1006.23
2019-04-27T01:40:55.954Z,1006.22
2019-04-27T01:41:55.934Z,1006.24
2019-04-27T01:42:55.914Z,1006.27
2019-04-27T01:43:55.895Z,1006.24
2019-04-27T01:44:55.890Z,1006.22
2019-04-27T01:45:55.860Z,1006.21
2019-04-27T01:46:55.839Z,1006.21
2019-04-27T01:47:55.820Z,1006.20
2019-04-27T01:48:55.814Z,1006.21
2019-04-27T01:49:55.782Z,1006.21
2019-04-27T01:50:55.764Z,1006.19
2019-04-27T01:51:55.746Z,1006.18
2019-04-27T01:52:55.729Z,1006.16
2019-04-27T01:53:55.708Z,1006.13
2019-04-27T01:54:55.689Z,1006.10
2019-04-27T01:55:55.670Z,1006.13
2019-04-27T01:56:55.654Z,1006.12
2019-04-27T01:57:55.634Z,1006.06
2019-04-27T01:58:55.612Z,1006.09
2019-04-27T01:59:55.599Z,1006.09
2019-04-27T02:00:55.576Z,1006.09
2019-04-27T02:01:55.557Z,1006.09
2019-04-27T02:02:55.538Z,1006.09
2019-04-27T02:03:55.518Z,1006.11
2019-04-27T02:04:55.554Z,1006.13
2019-04-27T02:05:55.481Z,1006.10
2019-04-27T02:06:55.463Z,1006.08
2019-04-27T02:07:55.444Z,1006.08
2019-04-27T02:08:55.425Z,1006.06
2019-04-27T02:09:55.408Z,1006.09
2019-04-27T02:10:55.386Z,1006.05
2019-04-27T02:11:55.402Z,1006.06
2019-04-27T02:12:55.348Z,1006.05
2019-04-27T02:13:55.330Z,1006.08
2019-04-27T02:14:55.310Z,1006.06
2019-04-27T02:15:55.293Z,1006.06
2019-04-27T02:16:55.272Z,1006.03
2019-04-27T02:17:55.254Z,1006.05
2019-04-27T02:18:55.248Z,1006.01
2019-04-27T02:19:55.217Z,1006.03
2019-04-27T02:20:55.199Z,1005.98
2019-04-27T02:21:55.194Z,1005.99
2019-04-27T02:22:55.158Z,1005.94
2019-04-27T02:23:55.139Z,1005.90
2019-04-27T02:24:55.121Z,1005.93
2019-04-27T02:25:55.112Z,1005.88
2019-04-27T02:26:55.081Z,1005.88
2019-04-27T02:27:55.065Z,1005.88
2019-04-27T02:28:55.044Z,1005.86
2019-04-27T02:29:55.034Z,1005.87
2019-04-27T02:30:55.008Z,1005.86
2019-04-27T02:31:54.990Z,1005.86
2019-04-27T02:32:54.970Z,1005.86
2019-04-27T02:33:54.951Z,1005.90
2019-04-27T02:34:54.933Z,1005.84
2019-04-27T02:35:54.914Z,1005.83
2019-04-27T02:36:54.895Z,1005.84
2019-04-27T02:37:54.876Z,1005.81
2019-04-27T02:38:54.856Z,1005.83
2019-04-27T02:39:54.836Z,1005.79
2019-04-27T02:40:54.819Z,1005.82
2019-04-27T02:41:54.800Z,1005.79
2019-04-27T02:42:54.786Z,1005.77
2019-04-27T02:43:54.764Z,1005.78
2019-04-27T02:44:54.741Z,1005.77
2019-04-27T02:45:54.722Z,1005.78
2019-04-27T02:46:54.707Z,1005.76
2019-04-27T02:47:54.700Z,1005.72
2019-04-27T02:48:59.987Z,1005.76
2019-04-27T02:49:54.649Z,1005.76
2019-04-27T02:50:54.626Z,1005.76
2019-04-27T02:51:54.622Z,1005.74
2019-04-27T02:52:54.590Z,1005.75
2019-04-27T02:53:54.570Z,1005.75
2019-04-27T02:54:54.549Z,1005.75
2019-04-27T02:55:54.530Z,1005.72
2019-04-27T02:56:54.523Z,1005.74
2019-04-27T02:57:54.500Z,1005.74
2019-04-27T02:58:54.474Z,1005.71
2019-04-27T02:59:54.456Z,1005.69
2019-04-27T03:00:54.436Z,1005.72
2019-04-27T03:01:54.431Z,1005.73
2019-04-27T03:02:54.396Z,1005.73
2019-04-27T03:03:54.377Z,1005.73
2019-04-27T03:04:54.359Z,1005.70
2019-04-27T03:05:54.342Z,1005.72
2019-04-27T03:06:54.322Z,1005.68
2019-04-27T03:07:54.303Z,1005.66
2019-04-27T03:08:54.522Z,1005.69
2019-04-27T03:09:54.266Z,1005.67
2019-04-27T03:10:54.243Z,1005.64
2019-04-27T03:11:54.226Z,1005.65
2019-04-27T03:12:54.206Z,1005.64
2019-04-27T03:13:54.188Z,1005.60
2019-04-27T03:14:54.168Z,1005.61
2019-04-27T03:15:54.150Z,1005.60
2019-04-27T03:16:54.130Z,1005.61
2019-04-27T03:17:54.111Z,1005.64
2019-04-27T03:19:10.070Z,1005.58
2019-04-27T03:19:54.113Z,1005.60
2019-04-27T03:20:54.055Z,1005.62
2019-04-27T03:21:54.036Z,1005.56
2019-04-27T03:22:54.015Z,1005.60
2019-04-27T03:23:53.994Z,1005.56
2019-04-27T03:24:53.978Z,1005.50
2019-04-27T03:25:53.960Z,1005.55
2019-04-27T03:26:53.938Z,1005.51
2019-04-27T03:27:53.959Z,1005.49
2019-04-27T03:28:53.898Z,1005.50
2019-04-27T03:29:53.900Z,1005.49
2019-04-27T03:30:53.876Z,1005.52
2019-04-27T03:31:54.610Z,1005.52
2019-04-27T03:32:56.703Z,1005.53
2019-04-27T03:33:58.959Z,1005.51
2019-04-27T03:34:53.789Z,1005.49
2019-04-27T03:35:53.771Z,1005.45
2019-04-27T03:36:53.805Z,1005.48
2019-04-27T03:37:53.726Z,1005.47
2019-04-27T03:38:53.706Z,1005.42
2019-04-27T03:39:53.684Z,1005.45
2019-04-27T03:40:53.667Z,1005.40
2019-04-27T03:41:53.651Z,1005.40
2019-04-27T03:42:53.627Z,1005.38
2019-04-27T03:43:53.610Z,1005.36
2019-04-27T03:44:53.594Z,1005.34
2019-04-27T03:45:53.573Z,1005.35
2019-04-27T03:46:53.549Z,1005.33
2019-04-27T03:47:53.535Z,1005.35
2019-04-27T03:48:53.520Z,1005.34
2019-04-27T03:49:53.512Z,1005.36
2019-04-27T03:50:53.476Z,1005.37
2019-04-27T03:51:53.460Z,1005.33
2019-04-27T03:52:53.436Z,1005.35
2019-04-27T03:53:57.114Z,1005.31
2019-04-27T03:54:53.395Z,1005.30
2019-04-27T03:55:53.376Z,1005.32
2019-04-27T03:56:53.358Z,1005.34
2019-04-27T03:57:53.349Z,1005.31
2019-04-27T03:58:53.320Z,1005.32
2019-04-27T03:59:53.304Z,1005.31
2019-04-27T04:00:53.281Z,1005.31
2019-04-27T04:01:53.261Z,1005.32
2019-04-27T04:02:53.254Z,1005.29
2019-04-27T04:03:53.224Z,1005.29
2019-04-27T04:04:53.204Z,1005.27
2019-04-27T04:05:53.183Z,1005.36
2019-04-27T04:06:53.170Z,1005.31
2019-04-27T04:07:53.143Z,1005.29
2019-04-27T04:08:55.133Z,1005.31
2019-04-27T04:09:53.110Z,1005.31
2019-04-27T04:10:53.095Z,1005.25
2019-04-27T04:11:53.069Z,1005.31
2019-04-27T04:12:56.076Z,1005.30
2019-04-27T04:13:53.034Z,1005.32
2019-04-27T04:14:53.022Z,1005.32
2019-04-27T04:15:52.989Z,1005.32
2019-04-27T04:16:52.980Z,1005.32
2019-04-27T04:17:52.957Z,1005.33
2019-04-27T04:18:52.936Z,1005.32
2019-04-27T04:19:57.586Z,1005.32
2019-04-27T04:20:52.896Z,1005.31
2019-04-27T04:21:52.876Z,1005.29
2019-04-27T04:22:52.858Z,1005.32
2019-04-27T04:23:52.837Z,1005.30
2019-04-27T04:24:52.818Z,1005.29
2019-04-27T04:25:52.801Z,1005.29
2019-04-27T04:26:52.779Z,1005.29
2019-04-27T04:27:52.766Z,1005.33
2019-04-27T04:28:52.738Z,1005.34
2019-04-27T04:29:52.722Z,1005.30
2019-04-27T04:30:52.701Z,1005.29
2019-04-27T04:31:52.682Z,1005.29
2019-04-27T04:32:52.663Z,1005.30
2019-04-27T04:33:52.644Z,1005.28
2019-04-27T04:34:52.626Z,1005.23
2019-04-27T04:35:52.618Z,1005.25
2019-04-27T04:36:52.585Z,1005.21
2019-04-27T04:37:53.300Z,1005.23
2019-04-27T04:38:52.549Z,1005.24
2019-04-27T04:39:53.556Z,1005.25
2019-04-27T04:40:52.507Z,1005.27
2019-04-27T04:41:52.500Z,1005.26
2019-04-27T04:42:52.477Z,1005.25
2019-04-27T04:43:52.451Z,1005.26
2019-04-27T04:44:52.431Z,1005.24
2019-04-27T04:45:52.435Z,1005.24
2019-04-27T04:46:52.408Z,1005.23
2019-04-27T04:47:52.373Z,1005.27
2019-04-27T04:48:52.355Z,1005.26
2019-04-27T04:50:07.480Z,1005.22
2019-04-27T04:50:52.314Z,1005.23
2019-04-27T04:51:52.297Z,1005.20
2019-04-27T04:52:52.277Z,1005.20
2019-04-27T04:53:52.257Z,1005.24
2019-04-27T04:54:52.240Z,1005.25
2019-04-27T04:55:52.218Z,1005.24
2019-04-27T04:56:52.199Z,1005.28
2019-04-27T04:57:52.179Z,1005.23
2019-04-27T04:58:52.165Z,1005.28
2019-04-27T04:59:52.141Z,1005.27
2019-04-27T05:00:52.126Z,1005.27
2019-04-27T05:01:52.113Z,1005.26
2019-04-27T05:02:52.082Z,1005.22
2019-04-27T05:03:52.064Z,1005.23
2019-04-27T05:04:52.044Z,1005.23
2019-04-27T05:05:52.053Z,1005.21
2019-04-27T05:06:52.005Z,1005.22
2019-04-27T05:07:52.001Z,1005.24
2019-04-27T05:08:51.974Z,1005.20
2019-04-27T05:09:51.947Z,1005.22
2019-04-27T05:10:51.930Z,1005.20
2019-04-27T05:11:51.915Z,1005.21
2019-04-27T05:12:51.902Z,1005.23
2019-04-27T05:13:51.874Z,1005.22
2019-04-27T05:14:51.856Z,1005.26
2019-04-27T05:15:51.836Z,1005.22
2019-04-27T05:16:51.822Z,1005.23
2019-04-27T05:17:51.813Z,1005.20
2019-04-27T05:18:51.776Z,1005.22
2019-04-27T05:19:51.761Z,1005.19
2019-04-27T05:20:51.752Z,1005.17
2019-04-27T05:21:51.716Z,1005.14
2019-04-27T05:22:51.703Z,1005.15
2019-04-27T05:23:51.682Z,1005.14
2019-04-27T05:24:51.666Z,1005.17
2019-04-27T05:25:51.641Z,1005.16
2019-04-27T05:26:51.621Z,1005.13
2019-04-27T05:27:51.606Z,1005.11
2019-04-27T05:28:51.585Z,1005.10
2019-04-27T05:29:51.564Z,1005.11
2019-04-27T05:30:51.546Z,1005.13
2019-04-27T05:31:51.533Z,1005.15
2019-04-27T05:32:51.508Z,1005.19
2019-04-27T05:33:51.487Z,1005.18
2019-04-27T05:34:51.468Z,1005.20
2019-04-27T05:35:51.451Z,1005.20
2019-04-27T05:36:52.622Z,1005.18
2019-04-27T05:37:51.411Z,1005.16
2019-04-27T05:38:51.394Z,1005.14
2019-04-27T05:39:51.377Z,1005.12
2019-04-27T05:40:51.357Z,1005.11
2019-04-27T05:41:51.335Z,1005.12
2019-04-27T05:42:55.256Z,1005.06
2019-04-27T05:43:51.302Z,1005.05
2019-04-27T05:44:51.280Z,1005.05
2019-04-27T05:45:53.225Z,1005.06
2019-04-27T05:46:51.309Z,1005.07
2019-04-27T05:47:51.987Z,1005.04
2019-04-27T05:48:51.204Z,1005.03
2019-04-27T05:49:51.183Z,1005.03
2019-04-27T05:50:58.275Z,1005.04
2019-04-27T05:51:51.150Z,1005.02
2019-04-27T05:52:51.132Z,1005.05
2019-04-27T05:53:51.107Z,1005.05
2019-04-27T05:54:51.089Z,1005.07
2019-04-27T05:55:51.071Z,1005.09
2019-04-27T05:56:51.054Z,1005.08
2019-04-27T05:57:51.030Z,1005.16
2019-04-27T05:58:51.252Z,1005.14
2019-04-27T05:59:50.995Z,1005.11
2019-04-27T06:00:50.975Z,1005.13
2019-04-27T06:01:50.962Z,1005.16
2019-04-27T06:02:50.936Z,1005.16
2019-04-27T06:03:50.919Z,1005.12
2019-04-27T06:04:50.903Z,1005.13
2019-04-27T06:05:50.880Z,1005.13
2019-04-27T06:06:50.862Z,1005.10
2019-04-27T06:07:50.875Z,1005.11
2019-04-27T06:08:50.824Z,1005.06
2019-04-27T06:09:50.804Z,1005.07
2019-04-27T06:10:50.786Z,1005.08
2019-04-27T06:11:50.848Z,1005.11
2019-04-27T06:12:50.774Z,1005.06
2019-04-27T06:13:50.730Z,1005.08
2019-04-27T06:14:50.709Z,1005.06
2019-04-27T06:15:50.692Z,1005.02
2019-04-27T06:16:51.369Z,1005.01
2019-04-27T06:17:50.655Z,1005.03
2019-04-27T06:18:50.641Z,1005.04
2019-04-27T06:19:50.617Z,1005.02
2019-04-27T06:20:55.541Z,1005.00
2019-04-27T06:21:50.578Z,1004.98
2019-04-27T06:22:50.566Z,1005.02
2019-04-27T06:23:50.541Z,1005.00
2019-04-27T06:24:54.361Z,1005.02
2019-04-27T06:25:50.503Z,1005.00
2019-04-27T06:26:50.484Z,1004.98
2019-04-27T06:27:50.470Z,1004.97
2019-04-27T06:28:50.551Z,1004.93
2019-04-27T06:29:50.433Z,1004.94
2019-04-27T06:30:50.409Z,1004.98
2019-04-27T06:31:50.390Z,1004.93
2019-04-27T06:32:50.371Z,1004.98
2019-04-27T06:33:50.354Z,1004.96
2019-04-27T06:34:50.333Z,1004.97
2019-04-27T06:35:50.315Z,1004.94
2019-04-27T06:36:50.297Z,1004.99
2019-04-27T06:37:50.278Z,1004.91
2019-04-27T06:38:50.262Z,1004.89
2019-04-27T06:39:50.240Z,1004.87
2019-04-27T06:40:50.227Z,1004.85
2019-04-27T06:41:50.211Z,1004.82
2019-04-27T06:42:50.184Z,1004.91
2019-04-27T06:43:50.185Z,1004.86
2019-04-27T06:44:50.149Z,1004.80
2019-04-27T06:45:50.130Z,1004.79
2019-04-27T06:46:50.111Z,1004.72
2019-04-27T06:47:51.301Z,1004.74
2019-04-27T06:48:50.075Z,1004.72
2019-04-27T06:49:50.057Z,1004.69
2019-04-27T06:51:02.447Z,1004.70
2019-04-27T06:51:50.024Z,1004.77
2019-04-27T06:52:50.019Z,1004.79
2019-04-27T06:53:49.980Z,1004.77
2019-04-27T06:54:49.963Z,1004.78
2019-04-27T06:55:49.944Z,1004.71
2019-04-27T06:56:49.924Z,1004.78
2019-04-27T06:57:49.932Z,1004.72
2019-04-27T06:58:49.897Z,1004.67
2019-04-27T06:59:50.703Z,1004.67
2019-04-27T07:00:49.851Z,1004.63
2019-04-27T07:01:49.861Z,1004.65
2019-04-27T07:02:49.819Z,1004.64
2019-04-27T07:03:49.833Z,1004.61
2019-04-27T07:04:49.781Z,1004.68
2019-04-27T07:05:49.773Z,1004.66
2019-04-27T07:06:53.963Z,1004.68
2019-04-27T07:07:49.744Z,1004.69
2019-04-27T07:08:49.882Z,1004.67
2019-04-27T07:09:49.690Z,1004.64
2019-04-27T07:10:49.665Z,1004.72
2019-04-27T07:11:49.743Z,1004.68
2019-04-27T07:12:49.629Z,1004.65
2019-04-27T07:13:49.834Z,1004.67
2019-04-27T07:14:52.952Z,1004.69
2019-04-27T07:15:49.576Z,1004.67
2019-04-27T07:16:50.839Z,1004.63
2019-04-27T07:17:49.536Z,1004.68
2019-04-27T07:18:50.419Z,1004.68
2019-04-27T07:19:49.756Z,1004.64
2019-04-27T07:20:49.481Z,1004.61
2019-04-27T07:21:49.860Z,1004.66
2019-04-27T07:22:49.733Z,1004.65
2019-04-27T07:23:49.425Z,1004.67
2019-04-27T07:24:49.409Z,1004.69
2019-04-27T07:25:49.394Z,1004.61
2019-04-27T07:26:49.369Z,1004.60
2019-04-27T07:27:49.514Z,1004.59
2019-04-27T07:28:49.450Z,1004.57
2019-04-27T07:29:49.563Z,1004.64
2019-04-27T07:30:49.368Z,1004.62
2019-04-27T07:31:49.726Z,1004.60
2019-04-27T07:32:49.435Z,1004.56
2019-04-27T07:33:49.462Z,1004.60
2019-04-27T07:34:49.765Z,1004.62
2019-04-27T07:35:49.215Z,1004.59
2019-04-27T07:36:49.310Z,1004.62
2019-04-27T07:37:49.167Z,1004.59
2019-04-27T07:38:49.146Z,1004.57
2019-04-27T07:39:49.306Z,1004.61
2019-04-27T07:40:49.112Z,1004.61
2019-04-27T07:41:49.096Z,1004.63
2019-04-27T07:42:49.643Z,1004.62
2019-04-27T07:43:49.435Z,1004.60
2019-04-27T07:44:50.037Z,1004.58
2019-04-27T07:45:49.473Z,1004.62
2019-04-27T07:46:49.829Z,1004.58
2019-04-27T07:47:49.371Z,1004.55
2019-04-27T07:48:49.235Z,1004.59
2019-04-27T07:49:49.709Z,1004.61
2019-04-27T07:50:48.927Z,1004.62
2019-04-27T07:51:49.062Z,1004.67
2019-04-27T07:52:48.925Z,1004.60
2019-04-27T07:53:48.965Z,1004.59
2019-04-27T07:54:49.296Z,1004.62
2019-04-27T07:55:49.499Z,1004.64
2019-04-27T07:56:48.923Z,1004.60
2019-04-27T07:57:49.473Z,1004.63
2019-04-27T07:58:49.437Z,1004.59
2019-04-27T07:59:50.137Z,1004.59
2019-04-27T08:00:49.497Z,1004.63
2019-04-27T08:01:49.182Z,1004.64
2019-04-27T08:02:48.727Z,1004.61
2019-04-27T08:03:49.136Z,1004.63
2019-04-27T08:04:50.465Z,1004.61
2019-04-27T08:05:49.107Z,1004.62
2019-04-27T08:06:49.621Z,1004.64
2019-04-27T08:07:49.115Z,1004.63
2019-04-27T08:08:49.203Z,1004.66
2019-04-27T08:09:49.611Z,1004.63
2019-04-27T08:10:50.239Z,1004.64
2019-04-27T08:11:48.876Z,1004.67
2019-04-27T08:12:49.807Z,1004.65
2019-04-27T08:13:49.009Z,1004.66
2019-04-27T08:14:49.064Z,1004.72
2019-04-27T08:15:49.605Z,1004.65
2019-04-27T08:16:48.753Z,1004.69
2019-04-27T08:17:49.264Z,1004.69
2019-04-27T08:18:49.367Z,1004.68
2019-04-27T08:19:49.609Z,1004.66
2019-04-27T08:20:49.088Z,1004.64
2019-04-27T08:21:49.887Z,1004.67
2019-04-27T08:22:49.676Z,1004.69
2019-04-27T08:23:49.028Z,1004.69
2019-04-27T08:24:49.570Z,1004.68
2019-04-27T08:25:48.993Z,1004.69
2019-04-27T08:26:49.868Z,1004.74
2019-04-27T08:27:49.308Z,1004.73
2019-04-27T08:28:48.646Z,1004.72
2019-04-27T08:29:48.770Z,1004.73
2019-04-27T08:30:48.922Z,1004.77
2019-04-27T08:31:48.639Z,1004.73
2019-04-27T08:32:49.729Z,1004.71
2019-04-27T08:33:48.631Z,1004.68
2019-04-27T08:34:49.621Z,1004.71
2019-04-27T08:35:49.083Z,1004.72
2019-04-27T08:36:49.840Z,1004.68
2019-04-27T08:37:49.507Z,1004.68
2019-04-27T08:38:48.925Z,1004.69
2019-04-27T08:39:49.397Z,1004.72
2019-04-27T08:40:49.344Z,1004.68
2019-04-27T08:41:49.485Z,1004.66
2019-04-27T08:42:50.820Z,1004.67
2019-04-27T08:43:48.841Z,1004.68
2019-04-27T08:44:49.741Z,1004.65
2019-04-27T08:45:48.798Z,1004.65
2019-04-27T08:46:49.542Z,1004.60
2019-04-27T08:47:49.826Z,1004.65
2019-04-27T08:48:49.040Z,1004.63
2019-04-27T08:49:49.178Z,1004.65
2019-04-27T08:50:48.598Z,1004.62
2019-04-27T08:51:57.319Z,1004.58
2019-04-27T08:52:49.891Z,1004.59
2019-04-27T08:53:47.750Z,1004.61
2019-04-27T08:54:49.295Z,1004.56
2019-04-27T08:55:49.316Z,1004.56
2019-04-27T08:56:49.257Z,1004.62
2019-04-27T08:57:48.955Z,1004.57
2019-04-27T08:58:49.546Z,1004.51
2019-04-27T08:59:48.971Z,1004.54
2019-04-27T09:00:49.070Z,1004.55
2019-04-27T09:01:49.195Z,1004.52
2019-04-27T09:02:49.955Z,1004.55
2019-04-27T09:03:49.406Z,1004.52
2019-04-27T09:04:49.338Z,1004.47
2019-04-27T09:05:49.038Z,1004.48
2019-04-27T09:06:49.267Z,1004.46
2019-04-27T09:07:49.496Z,1004.49
2019-04-27T09:08:49.359Z,1004.44
2019-04-27T09:09:47.448Z,1004.47
2019-04-27T09:10:48.925Z,1004.48
2019-04-27T09:11:49.264Z,1004.40
2019-04-27T09:12:47.396Z,1004.46
2019-04-27T09:13:48.753Z,1004.43
2019-04-27T09:14:47.364Z,1004.39
2019-04-27T09:15:47.336Z,1004.37
2019-04-27T09:16:57.955Z,1004.34
2019-04-27T09:17:48.840Z,1004.32
2019-04-27T09:18:47.280Z,1004.30
2019-04-27T09:19:49.051Z,1004.33
2019-04-27T09:20:49.024Z,1004.23
2019-04-27T09:21:48.561Z,1004.31
2019-04-27T09:22:47.208Z,1004.33
2019-04-27T09:23:48.868Z,1004.28
2019-04-27T09:24:47.175Z,1004.26
2019-04-27T09:25:47.170Z,1004.23
2019-04-27T09:26:47.129Z,1004.23
2019-04-27T09:27:48.809Z,1004.21
2019-04-27T09:28:47.092Z,1004.23
2019-04-27T09:29:47.075Z,1004.23
2019-04-27T09:30:47.056Z,1004.23
2019-04-27T09:31:48.976Z,1004.23
2019-04-27T09:32:47.023Z,1004.21
2019-04-27T09:33:47.002Z,1004.17
2019-04-27T09:34:46.982Z,1004.17
2019-04-27T09:35:46.995Z,1004.19
2019-04-27T09:36:46.946Z,1004.14
2019-04-27T09:37:46.930Z,1004.12
2019-04-27T09:38:46.910Z,1004.14
2019-04-27T09:39:46.888Z,1004.06
2019-04-27T09:40:46.870Z,1004.08
2019-04-27T09:41:48.359Z,1004.08
2019-04-27T09:42:46.831Z,1004.08
2019-04-27T09:43:46.813Z,1004.06
2019-04-27T09:44:47.604Z,1004.09
2019-04-27T09:45:47.202Z,1004.09
2019-04-27T09:46:47.517Z,1004.04
2019-04-27T09:47:46.951Z,1004.04
2019-04-27T09:48:46.763Z,1004.06
2019-04-27T09:49:46.704Z,1004.09
2019-04-27T09:50:46.706Z,1004.06
2019-04-27T09:51:46.666Z,1004.08
2019-04-27T09:52:46.647Z,1004.05
2019-04-27T09:53:46.629Z,1004.02
2019-04-27T09:54:48.192Z,1003.99
2019-04-27T09:55:46.909Z,1004.02
2019-04-27T09:56:46.785Z,1004.04
2019-04-27T09:57:46.629Z,1004.00
2019-04-27T09:58:47.093Z,1003.97
2019-04-27T09:59:46.519Z,1004.00
2019-04-27T10:00:46.499Z,1004.01
2019-04-27T10:01:46.656Z,1003.97
2019-04-27T10:02:46.675Z,1004.00
2019-04-27T10:03:46.515Z,1004.03
2019-04-27T10:04:46.428Z,1003.99
2019-04-27T10:05:46.423Z,1003.99
2019-04-27T10:06:48.718Z,1003.98
2019-04-27T10:07:47.636Z,1003.97
2019-04-27T10:08:46.356Z,1003.99
2019-04-27T10:09:47.498Z,1003.98
2019-04-27T10:10:47.918Z,1003.95
2019-04-27T10:11:46.300Z,1003.97
2019-04-27T10:12:46.690Z,1003.96
2019-04-27T10:13:46.594Z,1003.97
2019-04-27T10:14:47.663Z,1003.98
2019-04-27T10:15:46.228Z,1003.88
2019-04-27T10:16:46.943Z,1003.91
2019-04-27T10:17:46.230Z,1003.88
2019-04-27T10:18:46.172Z,1003.91
2019-04-27T10:19:46.248Z,1003.91
2019-04-27T10:20:58.269Z,1003.84
2019-04-27T10:21:46.775Z,1003.78
2019-04-27T10:22:46.425Z,1003.85
2019-04-27T10:23:47.044Z,1003.87
2019-04-27T10:24:46.061Z,1003.85
2019-04-27T10:25:46.045Z,1003.89
2019-04-27T10:26:46.022Z,1003.82
2019-04-27T10:27:46.004Z,1003.77
2019-04-27T10:28:45.990Z,1003.75
2019-04-27T10:29:46.748Z,1003.74
2019-04-27T10:30:45.957Z,1003.76
2019-04-27T10:31:46.081Z,1003.78
2019-04-27T10:32:46.215Z,1003.77
2019-04-27T10:33:45.962Z,1003.74
2019-04-27T10:34:45.876Z,1003.77
2019-04-27T10:35:47.347Z,1003.83
2019-04-27T10:36:46.152Z,1003.76
2019-04-27T10:37:45.820Z,1003.71
2019-04-27T10:38:45.977Z,1003.75
2019-04-27T10:39:46.056Z,1003.73
2019-04-27T10:40:45.765Z,1003.74
2019-04-27T10:41:46.295Z,1003.69
2019-04-27T10:42:45.930Z,1003.69
2019-04-27T10:43:45.709Z,1003.70
2019-04-27T10:44:46.304Z,1003.73
2019-04-27T10:45:46.303Z,1003.65
2019-04-27T10:46:45.657Z,1003.67
2019-04-27T10:47:46.032Z,1003.68
2019-04-27T10:48:45.761Z,1003.68
2019-04-27T10:49:46.545Z,1003.68
2019-04-27T10:50:46.704Z,1003.68
2019-04-27T10:51:45.879Z,1003.65
2019-04-27T10:52:53.178Z,1003.67
2019-04-27T10:53:45.720Z,1003.67
2019-04-27T10:54:45.537Z,1003.61
2019-04-27T10:55:46.402Z,1003.63
2019-04-27T10:56:46.063Z,1003.62
2019-04-27T10:57:45.454Z,1003.60
2019-04-27T10:58:45.730Z,1003.60
2019-04-27T10:59:46.155Z,1003.60
2019-04-27T11:00:45.403Z,1003.63
2019-04-27T11:01:45.936Z,1003.58
2019-04-27T11:02:45.364Z,1003.62
2019-04-27T11:03:46.200Z,1003.60
2019-04-27T11:04:46.199Z,1003.59
2019-04-27T11:05:46.042Z,1003.60
2019-04-27T11:06:45.295Z,1003.60
2019-04-27T11:07:46.355Z,1003.62
2019-04-27T11:08:46.485Z,1003.69
2019-04-27T11:09:45.234Z,1003.84
2019-04-27T11:10:46.210Z,1003.97
2019-04-27T11:11:46.375Z,1003.99
2019-04-27T11:12:45.798Z,1004.11
2019-04-27T11:13:46.336Z,1004.16
2019-04-27T11:14:45.170Z,1004.15
2019-04-27T11:15:46.089Z,1004.16
2019-04-27T11:16:45.973Z,1004.17
2019-04-27T11:17:45.968Z,1004.33
2019-04-27T11:18:47.017Z,1004.29
2019-04-27T11:19:46.022Z,1004.25
2019-04-27T11:20:46.712Z,1004.24
2019-04-27T11:21:45.014Z,1004.28
2019-04-27T11:22:46.487Z,1004.27
2019-04-27T11:23:45.962Z,1004.27
2019-04-27T11:24:45.855Z,1004.25
2019-04-27T11:25:46.658Z,1004.27
2019-04-27T11:26:46.506Z,1004.30
2019-04-27T11:27:44.901Z,1004.33
2019-04-27T11:28:46.330Z,1004.35
2019-04-27T11:29:46.234Z,1004.34
2019-04-27T11:30:44.845Z,1004.36
2019-04-27T11:31:46.406Z,1004.34
2019-04-27T11:32:44.805Z,1004.33
2019-04-27T11:33:46.389Z,1004.37
2019-04-27T11:34:45.951Z,1004.40
2019-04-27T11:35:44.749Z,1004.37
2019-04-27T11:36:45.594Z,1004.43
2019-04-27T11:37:45.602Z,1004.40
2019-04-27T11:38:46.384Z,1004.45
2019-04-27T11:39:46.055Z,1004.42
2019-04-27T11:40:46.489Z,1004.40
2019-04-27T11:41:44.670Z,1004.44
2019-04-27T11:42:44.615Z,1004.40
2019-04-27T11:43:46.326Z,1004.41
2019-04-27T11:44:44.578Z,1004.40
2019-04-27T11:45:45.734Z,1004.40
2019-04-27T11:46:45.506Z,1004.49
2019-04-27T11:47:44.522Z,1004.45
2019-04-27T11:48:44.515Z,1004.47
2019-04-27T11:49:45.711Z,1004.52
2019-04-27T11:50:45.855Z,1004.47
2019-04-27T11:51:44.445Z,1004.48
2019-04-27T11:52:45.625Z,1004.44
2019-04-27T11:53:44.408Z,1004.47
2019-04-27T11:54:45.752Z,1004.47
2019-04-27T11:55:44.375Z,1004.47
2019-04-27T11:56:44.364Z,1004.57
2019-04-27T11:57:44.332Z,1004.56
2019-04-27T11:58:44.313Z,1004.63
2019-04-27T11:59:44.295Z,1004.74
2019-04-27T12:00:44.283Z,1004.84
2019-04-27T12:01:45.866Z,1004.76
2019-04-27T12:02:45.711Z,1004.79
2019-04-27T12:03:44.218Z,1004.83
2019-04-27T12:04:44.198Z,1004.92